Aérodrome :
LOGIN :

S'inscrire | Disclaimer

   EN    FR    IT 

 










Légende :    VFR   VFR Marginal   IFR   IFR Intensif   IFR Très Intensif
Visi : 
Plafond : 
>= 8 km
>= 3000ft
5 à 8 km
1000 à 3000 ft
1500m à 5 km
500 à 1000 ft
800 à 1500m
200 à 500 ft
< 800m
< 200 ft
Symboles :   Orages  Brouillard  Fortes neiges  Fortes précipitations  Vent > 20 kt
SIGMETs :   Divers  Orages  Givrage  Turbulence  Onde Orograph.  Cendres Volcan.







- Altitude de l'aérodrome : 359 ft
- Code IATA : BVA
- Voir les cartes d'approche


LFOB - Beauvais

DERNIER METAR :
  • 201500Z AUTO VRB06KT CAVOK 20/09 Q1025 NOSIG

METARs EXPIRÉS :
  • 201430Z AUTO 24006KT 210V290 CAVOK 20/10 Q1025 NOSIG
  • 201400Z AUTO 28009KT 250V310 9999 FEW045 BKN058 19/10 Q1025 NOSIG
  • 201330Z AUTO 26006KT 230V290 9999 FEW046 BKN054 19/10 Q1025 NOSIG
  • 201300Z AUTO 27007KT 240V300 9999 FEW043 BKN056 20/10 Q1026 NOSIG
  • 201230Z AUTO 25005KT 200V340 CAVOK 20/10 Q1026 NOSIG

TAF TAF LFOB
Valide du 20 à 12h jusqu'au 21 à 12h UTC


201100Z 2012/2112 28010KT 9999 SCT040
BECMG 2017/2019 VRB02KT
BECMG 2106/2108 OVC013
ATIS : +33 3 44 11 49 28
Pas de NOTAMs connus pour ce terrain.



MET'MAP, la Météo Aéronautique d'un coup d'oeil ! - Copyright ORBIFLY Décembre 2007 - Disclaimer

ORBIFLY MET'MAP TEAM :

Programmation & Développement : Alexandra Zaïnal
Conception & Développement : Baudouin d'Aumeries
Co-Programmation & Développement : Marc-Olivier Méhu
Soutien technique & logistique : Manuel Goepfert

Contact : metmap@orbifly.com




SOURCES & CREDITS :

   NOAA